Time;durP1;ratioP1;P1;durP2;ratioP2;P2;SDS_P1;SDS_P2;PMS_P1;PMS_P2;Temp;Humidity;BMP_temperature;BMP_pressure;BME280_temperature;BME280_humidity;BME280_pressure;Samples;Min_cycle;Max_cycle;Signal;HPM_P1;HPM_P2
2023/05/06 00:01:19;;;;;;;2.37;2.17;;;;;;;;;;5000541;28;20203;-30
2023/05/06 00:03:46;;;;;;;3.13;2.53;;;;;;;;;;5004629;28;20224;-28
2023/05/06 00:06:13;;;;;;;3.03;2.47;;;;;;;;;;5005741;28;20219;-28
2023/05/06 00:08:40;;;;;;;2.17;2.00;;;;;;;;;;5003383;28;20208;-29
2023/05/06 00:11:07;;;;;;;2.87;2.60;;;;;;;;;;5004348;28;20218;-30
2023/05/06 00:13:34;;;;;;;3.03;2.77;;;;;;;;;;5005239;28;20222;-28
2023/05/06 00:16:01;;;;;;;4.73;2.67;;;;;;;;;;5003184;28;20215;-27
2023/05/06 00:18:30;;;;;;;2.90;2.27;;;;;;;;;;5009784;28;20230;-30
2023/05/06 00:20:57;;;;;;;3.43;3.00;;;;;;;;;;5005714;28;20216;-29
2023/05/06 00:23:24;;;;;;;2.90;2.70;;;;;;;;;;5003003;28;20231;-30
2023/05/06 00:25:51;;;;;;;3.03;2.83;;;;;;;;;;5005591;28;20203;-29
2023/05/06 00:28:18;;;;;;;2.77;2.57;;;;;;;;;;4995116;28;20211;-30
2023/05/06 00:30:45;;;;;;;3.20;2.80;;;;;;;;;;5000304;28;20206;-28
2023/05/06 00:33:12;;;;;;;2.50;2.30;;;;;;;;;;4991988;28;20209;-29
2023/05/06 00:35:41;;;;;;;5.40;2.60;;;;;;;;;;4991293;28;20220;-31
2023/05/06 00:38:08;;;;;;;3.20;2.53;;;;;;;;;;4996368;28;20232;-31
2023/05/06 00:40:36;;;;;;;3.63;2.97;;;;;;;;;;5004966;28;20217;-30
2023/05/06 00:43:03;;;;;;;3.83;3.10;;;;;;;;;;5005181;28;20199;-29
2023/05/06 00:45:30;;;;;;;2.93;2.70;;;;;;;;;;5000101;28;20207;-29
2023/05/06 00:47:57;;;;;;;4.67;2.70;;;;;;;;;;5005237;28;20196;-26
2023/05/06 00:50:26;;;;;;;3.50;3.20;;;;;;;;;;5005557;28;20214;-30
2023/05/06 00:52:55;;;;;;;3.40;3.10;;;;;;;;;;5007783;28;20219;-32
2023/05/06 00:55:22;;;;;;;4.43;3.60;;;;;;;;;;5009909;28;20207;-29
2023/05/06 00:57:50;;;;;;;3.50;3.10;;;;;;;;;;5009881;28;20223;-30
2023/05/06 01:00:18;;;;;;;4.67;2.93;;;;;;;;;;5002926;28;20297;-29
2023/05/06 01:02:45;;;;;;;3.37;2.73;;;;;;;;;;4996279;28;20199;-29
2023/05/06 01:05:12;;;;;;;2.93;2.67;;;;;;;;;;5005590;28;20231;-26
2023/05/06 01:07:42;;;;;;;2.63;2.43;;;;;;;;;;5004829;28;20214;-30
2023/05/06 01:10:17;;;;;;;3.37;2.80;;;;;;;;;;5004083;28;20223;-30
2023/05/06 01:12:47;;;;;;;5.37;3.53;;;;;;;;;;5005860;28;20242;-30
2023/05/06 01:15:15;;;;;;;4.87;3.50;;;;;;;;;;5002774;28;20223;-31
2023/05/06 01:17:44;;;;;;;4.80;3.27;;;;;;;;;;5008906;28;20247;-27
2023/05/06 01:20:12;;;;;;;3.80;3.47;;;;;;;;;;5009043;28;20207;-30
2023/05/06 01:22:39;;;;;;;3.93;3.40;;;;;;;;;;5003979;28;20215;-27
2023/05/06 01:25:08;;;;;;;3.37;2.60;;;;;;;;;;5003041;28;20235;-32
2023/05/06 01:27:35;;;;;;;2.87;2.67;;;;;;;;;;5007245;28;20207;-30
2023/05/06 01:30:03;;;;;;;4.07;3.23;;;;;;;;;;5006516;28;20215;-29
2023/05/06 01:32:43;;;;;;;3.80;3.37;;;;;;;;;;5004860;28;20207;-27
2023/05/06 01:35:15;;;;;;;4.63;3.10;;;;;;;;;;5009147;28;20270;-29
2023/05/06 01:37:46;;;;;;;4.70;3.20;;;;;;;;;;4998318;28;20208;-29
2023/05/06 01:40:15;;;;;;;3.57;3.27;;;;;;;;;;5003035;28;20218;-31
2023/05/06 01:42:43;;;;;;;3.40;3.10;;;;;;;;;;5001016;28;20569;-28
2023/05/06 01:45:11;;;;;;;7.80;3.80;;;;;;;;;;5001113;28;20273;-28
2023/05/06 01:47:38;;;;;;;13.30;4.37;;;;;;;;;;5006584;28;20199;-31
2023/05/06 01:50:06;;;;;;;8.03;3.97;;;;;;;;;;5008862;28;20222;-31
2023/05/06 01:52:33;;;;;;;7.30;4.27;;;;;;;;;;5006606;28;20213;-31
2023/05/06 01:55:00;;;;;;;6.47;4.27;;;;;;;;;;5004120;28;20227;-28
2023/05/06 01:57:28;;;;;;;4.53;4.00;;;;;;;;;;5007480;28;20227;-27
2023/05/06 01:59:55;;;;;;;6.87;4.50;;;;;;;;;;5004791;28;20428;-29
2023/05/06 02:02:23;;;;;;;15.63;4.50;;;;;;;;;;5004247;28;20204;-30
2023/05/06 02:04:52;;;;;;;9.13;4.10;;;;;;;;;;5008557;28;20219;-31
2023/05/06 02:07:19;;;;;;;4.40;3.77;;;;;;;;;;5006988;28;20203;-27
2023/05/06 02:09:46;;;;;;;3.87;3.20;;;;;;;;;;5007411;28;20454;-30
2023/05/06 02:12:13;;;;;;;3.13;2.83;;;;;;;;;;5002186;28;20196;-30
2023/05/06 02:14:41;;;;;;;10.30;5.13;;;;;;;;;;5004437;28;20222;-31
2023/05/06 02:17:08;;;;;;;5.80;4.50;;;;;;;;;;5005712;28;20219;-30
2023/05/06 02:19:36;;;;;;;5.17;4.10;;;;;;;;;;5000891;28;20234;-26
2023/05/06 02:22:03;;;;;;;5.30;4.00;;;;;;;;;;5007611;28;20364;-30
2023/05/06 02:24:30;;;;;;;6.50;5.03;;;;;;;;;;5004447;28;20223;-31
2023/05/06 02:26:57;;;;;;;10.53;3.97;;;;;;;;;;5006714;28;20374;-30
2023/05/06 02:29:24;;;;;;;5.10;4.30;;;;;;;;;;5005794;28;20199;-30
2023/05/06 02:31:53;;;;;;;4.83;4.20;;;;;;;;;;5006852;28;20199;-30
2023/05/06 02:34:20;;;;;;;5.37;4.27;;;;;;;;;;5006185;28;20234;-31
2023/05/06 02:36:47;;;;;;;7.57;4.60;;;;;;;;;;5008664;28;20214;-28
2023/05/06 02:39:14;;;;;;;5.33;4.60;;;;;;;;;;5004780;28;20238;-30
2023/05/06 02:41:41;;;;;;;6.20;4.73;;;;;;;;;;5007354;28;20210;-31
2023/05/06 02:44:08;;;;;;;5.27;4.73;;;;;;;;;;5001493;28;20238;-27
2023/05/06 02:46:35;;;;;;;4.60;4.13;;;;;;;;;;5006201;28;20211;-28
2023/05/06 02:49:04;;;;;;;5.13;3.83;;;;;;;;;;4998451;28;20208;-28
2023/05/06 02:51:31;;;;;;;8.37;4.90;;;;;;;;;;5008429;28;20199;-28
2023/05/06 02:53:58;;;;;;;7.97;4.90;;;;;;;;;;5005000;28;20223;-30
2023/05/06 02:56:25;;;;;;;4.67;3.73;;;;;;;;;;5007047;28;20207;-31
2023/05/06 02:58:53;;;;;;;7.37;4.07;;;;;;;;;;5005113;28;20215;-26
2023/05/06 03:01:20;;;;;;;6.03;4.83;;;;;;;;;;5006301;28;20207;-32
2023/05/06 03:03:48;;;;;;;6.83;4.27;;;;;;;;;;5006827;28;20311;-29
2023/05/06 03:06:16;;;;;;;3.90;3.60;;;;;;;;;;5006522;28;20207;-29
2023/05/06 03:08:44;;;;;;;9.07;4.93;;;;;;;;;;5004763;28;20196;-27
2023/05/06 03:11:11;;;;;;;14.20;5.37;;;;;;;;;;5006210;28;20211;-29
2023/05/06 03:13:38;;;;;;;7.30;5.50;;;;;;;;;;5007336;28;20235;-28
2023/05/06 03:16:05;;;;;;;7.87;4.97;;;;;;;;;;5001084;28;20207;-30
2023/05/06 03:18:32;;;;;;;6.57;5.13;;;;;;;;;;5005621;28;20220;-26
2023/05/06 03:21:00;;;;;;;6.33;5.17;;;;;;;;;;4998336;28;20203;-30
2023/05/06 03:23:28;;;;;;;6.67;5.10;;;;;;;;;;5005545;28;20245;-27
2023/05/06 03:25:55;;;;;;;6.70;5.07;;;;;;;;;;5005788;28;20203;-27
2023/05/06 03:28:22;;;;;;;5.80;4.93;;;;;;;;;;5007251;28;20196;-28
2023/05/06 03:30:49;;;;;;;13.27;5.77;;;;;;;;;;5004242;28;20413;-30
2023/05/06 03:33:17;;;;;;;9.60;4.90;;;;;;;;;;5008212;28;20234;-30
2023/05/06 03:35:44;;;;;;;9.77;5.63;;;;;;;;;;4997522;28;20216;-30
2023/05/06 03:38:11;;;;;;;8.70;5.57;;;;;;;;;;5003844;28;20215;-30
2023/05/06 03:40:39;;;;;;;7.50;5.60;;;;;;;;;;5005071;28;20207;-28
2023/05/06 03:43:06;;;;;;;7.50;5.10;;;;;;;;;;5007462;28;20209;-27
2023/05/06 03:45:34;;;;;;;6.13;4.67;;;;;;;;;;5002783;28;20210;-30
2023/05/06 03:48:01;;;;;;;7.47;5.10;;;;;;;;;;5006302;28;20203;-30
2023/05/06 03:50:28;;;;;;;11.23;4.60;;;;;;;;;;5005599;28;20199;-27
2023/05/06 03:52:55;;;;;;;8.73;4.93;;;;;;;;;;5007856;28;20206;-28
2023/05/06 03:55:22;;;;;;;7.50;5.30;;;;;;;;;;5004397;28;20207;-30
2023/05/06 03:57:50;;;;;;;5.80;4.77;;;;;;;;;;5007484;28;20203;-31
2023/05/06 04:00:18;;;;;;;6.87;4.33;;;;;;;;;;5004746;28;20231;-28
2023/05/06 04:02:45;;;;;;;7.73;5.00;;;;;;;;;;5006909;28;20203;-29
2023/05/06 04:05:12;;;;;;;8.80;4.90;;;;;;;;;;5006887;28;20223;-31
2023/05/06 04:07:39;;;;;;;6.90;5.13;;;;;;;;;;5009459;28;20214;-30
2023/05/06 04:10:07;;;;;;;9.27;5.57;;;;;;;;;;5004603;28;20565;-29
2023/05/06 04:12:34;;;;;;;6.30;5.13;;;;;;;;;;5007895;28;20227;-28
2023/05/06 04:15:03;;;;;;;9.63;5.40;;;;;;;;;;5005610;28;20231;-29
2023/05/06 04:17:30;;;;;;;10.40;5.67;;;;;;;;;;5004260;28;20215;-26
2023/05/06 04:19:57;;;;;;;7.03;6.10;;;;;;;;;;5007036;28;20227;-29
2023/05/06 04:22:24;;;;;;;11.00;4.63;;;;;;;;;;5003381;28;20205;-29
2023/05/06 04:24:51;;;;;;;7.20;4.70;;;;;;;;;;5005069;28;20258;-29
2023/05/06 04:27:18;;;;;;;9.27;6.00;;;;;;;;;;4996013;28;20211;-30
2023/05/06 04:29:45;;;;;;;6.50;5.03;;;;;;;;;;5005173;28;20209;-28
2023/05/06 04:32:16;;;;;;;9.53;5.07;;;;;;;;;;5006381;28;20211;-28
2023/05/06 04:34:46;;;;;;;5.97;5.37;;;;;;;;;;5002799;28;20220;-29
2023/05/06 04:37:14;;;;;;;7.80;4.70;;;;;;;;;;5004893;28;20203;-29
2023/05/06 04:39:41;;;;;;;9.47;4.97;;;;;;;;;;5003751;28;20259;-29
2023/05/06 04:42:08;;;;;;;5.57;4.77;;;;;;;;;;4999359;28;20210;-28
2023/05/06 04:44:35;;;;;;;5.33;4.40;;;;;;;;;;5004743;28;20227;-28
2023/05/06 04:47:02;;;;;;;5.33;4.60;;;;;;;;;;5009331;28;20207;-29
2023/05/06 04:49:31;;;;;;;11.53;5.40;;;;;;;;;;5002189;28;20218;-30
2023/05/06 04:51:58;;;;;;;14.47;4.50;;;;;;;;;;5005817;28;20208;-28
2023/05/06 04:54:25;;;;;;;5.27;4.13;;;;;;;;;;5010913;28;20249;-27
2023/05/06 04:56:52;;;;;;;5.80;4.30;;;;;;;;;;5011252;28;20213;-26
2023/05/06 04:59:19;;;;;;;7.60;4.17;;;;;;;;;;5006847;28;20227;-26
2023/05/06 05:01:46;;;;;;;4.60;3.97;;;;;;;;;;5011648;28;20203;-27
2023/05/06 05:04:13;;;;;;;4.17;3.77;;;;;;;;;;5003002;28;20228;-30
2023/05/06 05:06:42;;;;;;;4.40;4.00;;;;;;;;;;5009414;28;20203;-26
2023/05/06 05:09:10;;;;;;;5.80;4.43;;;;;;;;;;5009696;28;20199;-30
2023/05/06 05:11:37;;;;;;;8.53;4.47;;;;;;;;;;5011958;28;20262;-28
2023/05/06 05:14:05;;;;;;;6.07;5.03;;;;;;;;;;5004134;28;20313;-27
2023/05/06 05:16:32;;;;;;;6.73;4.40;;;;;;;;;;5011265;28;20218;-27
2023/05/06 05:18:59;;;;;;;6.27;5.03;;;;;;;;;;5004582;28;20216;-30
2023/05/06 05:21:27;;;;;;;6.17;4.43;;;;;;;;;;4996017;28;20227;-28
2023/05/06 05:23:55;;;;;;;7.10;5.13;;;;;;;;;;5009725;28;20458;-28
2023/05/06 05:26:22;;;;;;;5.30;4.27;;;;;;;;;;5011587;28;20210;-29
2023/05/06 05:28:49;;;;;;;9.37;5.17;;;;;;;;;;5009617;28;20215;-31
2023/05/06 05:31:16;;;;;;;5.53;4.30;;;;;;;;;;5005431;28;20207;-28
2023/05/06 05:33:43;;;;;;;5.57;4.73;;;;;;;;;;5005780;28;20227;-29
2023/05/06 05:36:14;;;;;;;7.40;5.10;;;;;;;;;;5011250;28;20211;-29
2023/05/06 05:38:41;;;;;;;7.27;4.73;;;;;;;;;;5002477;28;20210;-31
2023/05/06 05:41:10;;;;;;;6.40;5.33;;;;;;;;;;5010039;28;20233;-27
2023/05/06 05:43:37;;;;;;;6.10;5.20;;;;;;;;;;5009143;28;20223;-28
2023/05/06 05:46:04;;;;;;;5.83;4.90;;;;;;;;;;5004266;28;20214;-27
2023/05/06 05:48:31;;;;;;;5.87;5.10;;;;;;;;;;5004496;28;20481;-28
2023/05/06 05:50:58;;;;;;;7.03;5.63;;;;;;;;;;4998111;28;20259;-31
2023/05/06 05:53:26;;;;;;;10.50;5.67;;;;;;;;;;5009502;28;20222;-29
2023/05/06 05:55:53;;;;;;;5.47;4.97;;;;;;;;;;5012399;28;20208;-28
2023/05/06 05:58:21;;;;;;;5.17;4.53;;;;;;;;;;5004790;28;20219;-27
2023/05/06 06:00:48;;;;;;;6.10;5.03;;;;;;;;;;4999847;28;20242;-30
2023/05/06 06:03:15;;;;;;;7.50;5.77;;;;;;;;;;5010677;28;20234;-28
2023/05/06 06:05:42;;;;;;;6.83;5.07;;;;;;;;;;5012408;28;20202;-29
2023/05/06 06:08:10;;;;;;;6.73;5.63;;;;;;;;;;5010491;28;20203;-30
2023/05/06 06:10:37;;;;;;;5.83;5.17;;;;;;;;;;5014323;28;20207;-27
2023/05/06 06:13:04;;;;;;;7.00;4.87;;;;;;;;;;5014012;28;20208;-29
2023/05/06 06:15:33;;;;;;;5.37;4.87;;;;;;;;;;5005528;28;20235;-28
2023/05/06 06:18:00;;;;;;;5.93;4.70;;;;;;;;;;5009360;28;20227;-28
2023/05/06 06:20:27;;;;;;;5.80;4.50;;;;;;;;;;5011358;28;20235;-28
2023/05/06 06:22:55;;;;;;;6.00;5.00;;;;;;;;;;5007288;28;20207;-26
2023/05/06 06:25:22;;;;;;;5.30;4.83;;;;;;;;;;5003177;28;20211;-27
2023/05/06 06:27:49;;;;;;;5.57;5.00;;;;;;;;;;5011419;28;20203;-27
2023/05/06 06:30:16;;;;;;;6.07;5.43;;;;;;;;;;5005830;28;20203;-24
2023/05/06 06:32:49;;;;;;;5.60;5.00;;;;;;;;;;5003171;28;20235;-28
2023/05/06 06:35:16;;;;;;;6.93;5.20;;;;;;;;;;5010727;28;20401;-28
2023/05/06 06:37:43;;;;;;;5.37;4.87;;;;;;;;;;5008143;28;20230;-29
2023/05/06 06:40:11;;;;;;;4.67;4.07;;;;;;;;;;5008991;28;20223;-31
2023/05/06 06:42:39;;;;;;;5.00;4.50;;;;;;;;;;5010654;28;20204;-29
2023/05/06 06:45:06;;;;;;;5.43;4.17;;;;;;;;;;5007964;28;20227;-28
2023/05/06 06:47:33;;;;;;;4.97;4.10;;;;;;;;;;5010040;28;20199;-29
2023/05/06 06:50:04;;;;;;;5.20;4.70;;;;;;;;;;5010739;28;20204;-28
2023/05/06 06:52:31;;;;;;;8.07;4.53;;;;;;;;;;5007262;28;20266;-26
2023/05/06 06:54:58;;;;;;;4.60;4.20;;;;;;;;;;5012569;28;20243;-26
2023/05/06 06:57:25;;;;;;;4.40;4.00;;;;;;;;;;5009718;28;20209;-29
2023/05/06 06:59:55;;;;;;;4.80;4.30;;;;;;;;;;5006995;28;20235;-29
2023/05/06 07:02:22;;;;;;;5.30;4.00;;;;;;;;;;5009376;28;20287;-30
2023/05/06 07:04:49;;;;;;;4.63;4.23;;;;;;;;;;5008231;28;20309;-29
2023/05/06 07:07:18;;;;;;;5.13;3.73;;;;;;;;;;5013334;28;20272;-31
2023/05/06 07:09:45;;;;;;;4.13;3.70;;;;;;;;;;5008264;28;20209;-26
2023/05/06 07:12:12;;;;;;;6.07;3.40;;;;;;;;;;5009820;28;20199;-27
2023/05/06 07:14:40;;;;;;;4.07;3.67;;;;;;;;;;5008976;28;20230;-27
2023/05/06 07:17:07;;;;;;;4.60;3.37;;;;;;;;;;5010914;28;20242;-28
2023/05/06 07:19:34;;;;;;;3.88;3.40;;;;;;;;;;5012651;28;20206;-29
2023/05/06 07:22:02;;;;;;;6.27;3.87;;;;;;;;;;5009871;28;20217;-30
2023/05/06 07:24:30;;;;;;;3.30;2.97;;;;;;;;;;5003720;28;20219;-28
2023/05/06 07:26:58;;;;;;;3.83;3.40;;;;;;;;;;5013052;28;20218;-30
2023/05/06 07:29:25;;;;;;;2.90;2.70;;;;;;;;;;5007484;28;20210;-28
2023/05/06 07:31:52;;;;;;;3.42;2.92;;;;;;;;;;5008780;28;20207;-32
2023/05/06 07:34:19;;;;;;;4.35;2.97;;;;;;;;;;5007174;28;20228;-29
2023/05/06 07:36:47;;;;;;;3.72;2.70;;;;;;;;;;5007764;28;20209;-29
2023/05/06 07:39:14;;;;;;;2.60;2.40;;;;;;;;;;5004400;28;20214;-29
2023/05/06 07:41:43;;;;;;;3.00;2.80;;;;;;;;;;5004892;28;20222;-27
2023/05/06 07:44:10;;;;;;;3.73;3.30;;;;;;;;;;5010501;28;20317;-31
2023/05/06 07:46:37;;;;;;;3.13;2.83;;;;;;;;;;4999936;28;20202;-31
2023/05/06 07:49:04;;;;;;;3.67;3.00;;;;;;;;;;5005048;28;20221;-29
2023/05/06 07:51:32;;;;;;;4.30;2.87;;;;;;;;;;5012502;28;20205;-30
2023/05/06 07:53:59;;;;;;;4.47;3.33;;;;;;;;;;5010919;28;20229;-28
2023/05/06 07:56:29;;;;;;;3.03;2.80;;;;;;;;;;5006852;28;20214;-30
2023/05/06 07:58:58;;;;;;;3.87;2.83;;;;;;;;;;5009913;28;20203;-27
2023/05/06 08:01:25;;;;;;;2.90;2.70;;;;;;;;;;5011950;28;20220;-31
2023/05/06 08:03:52;;;;;;;3.27;2.87;;;;;;;;;;5012396;28;20223;-28
2023/05/06 08:06:19;;;;;;;3.50;2.53;;;;;;;;;;5011862;28;20214;-30
2023/05/06 08:08:46;;;;;;;2.70;2.27;;;;;;;;;;5011355;28;20207;-28
2023/05/06 08:11:20;;;;;;;2.83;2.53;;;;;;;;;;5007914;28;20199;-30
2023/05/06 08:13:47;;;;;;;3.63;2.43;;;;;;;;;;5008211;28;20227;-32
2023/05/06 08:16:15;;;;;;;2.70;2.47;;;;;;;;;;5010688;28;20222;-28
2023/05/06 08:18:42;;;;;;;2.60;2.40;;;;;;;;;;5012014;28;20206;-29
2023/05/06 08:21:10;;;;;;;2.17;2.03;;;;;;;;;;5012489;28;20227;-30
2023/05/06 08:23:37;;;;;;;2.50;2.30;;;;;;;;;;5009405;28;20254;-29
2023/05/06 08:26:04;;;;;;;3.20;2.57;;;;;;;;;;5012034;28;20215;-28
2023/05/06 08:28:32;;;;;;;2.50;2.33;;;;;;;;;;5012510;28;20213;-29
2023/05/06 08:30:59;;;;;;;2.67;2.47;;;;;;;;;;5005450;28;20256;-31
2023/05/06 08:33:29;;;;;;;2.43;1.93;;;;;;;;;;5007739;28;20226;-29
2023/05/06 08:35:57;;;;;;;2.23;2.00;;;;;;;;;;5009997;28;20210;-32
2023/05/06 08:38:25;;;;;;;2.10;2.00;;;;;;;;;;5006090;28;20202;-29
2023/05/06 08:40:53;;;;;;;2.90;2.07;;;;;;;;;;5007556;28;20223;-27
2023/05/06 08:43:21;;;;;;;3.03;2.07;;;;;;;;;;5011732;28;20321;-27
2023/05/06 08:45:49;;;;;;;2.03;1.90;;;;;;;;;;5011924;28;20206;-30
2023/05/06 08:48:17;;;;;;;2.37;1.60;;;;;;;;;;5008989;28;20232;-30
2023/05/06 08:50:45;;;;;;;1.90;1.80;;;;;;;;;;5013072;28;20203;-28
2023/05/06 08:53:13;;;;;;;1.60;1.50;;;;;;;;;;5011826;28;20214;-30
2023/05/06 08:55:41;;;;;;;4.43;1.70;;;;;;;;;;5010545;28;20295;-27
2023/05/06 08:58:09;;;;;;;2.40;1.52;;;;;;;;;;5010647;28;20237;-31
2023/05/06 09:00:36;;;;;;;3.63;2.08;;;;;;;;;;5007358;28;20250;-29
2023/05/06 09:03:03;;;;;;;1.52;1.42;;;;;;;;;;5010796;28;20212;-31
2023/05/06 09:05:31;;;;;;;1.50;1.40;;;;;;;;;;5012491;28;20306;-30
2023/05/06 09:07:59;;;;;;;1.98;1.77;;;;;;;;;;5011395;28;20211;-32
2023/05/06 09:10:31;;;;;;;1.45;1.35;;;;;;;;;;5115041;23;20222;-31
2023/05/06 09:12:58;;;;;;;3.50;1.58;;;;;;;;;;5031233;28;20206;-26
2023/05/06 09:15:26;;;;;;;3.15;1.98;;;;;;;;;;5037407;28;20202;-30
2023/05/06 09:17:53;;;;;;;1.95;1.40;;;;;;;;;;5034147;28;20199;-27
2023/05/06 09:20:21;;;;;;;2.88;1.80;;;;;;;;;;5032013;28;20218;-29
2023/05/06 09:22:48;;;;;;;1.10;1.10;;;;;;;;;;5034174;28;20202;-29
2023/05/06 09:25:16;;;;;;;1.80;1.70;;;;;;;;;;5049506;28;20226;-29
2023/05/06 09:27:44;;;;;;;1.35;1.25;;;;;;;;;;5051832;28;20225;-30
2023/05/06 09:30:11;;;;;;;2.23;1.30;;;;;;;;;;5038496;28;20203;-31
2023/05/06 09:32:39;;;;;;;1.30;1.30;;;;;;;;;;5034793;28;20205;-29
2023/05/06 09:35:07;;;;;;;3.53;1.60;;;;;;;;;;5034991;28;20272;-26
2023/05/06 09:37:34;;;;;;;3.03;1.70;;;;;;;;;;5036774;28;20215;-30
2023/05/06 09:40:01;;;;;;;1.27;1.17;;;;;;;;;;5041289;28;20250;-29
2023/05/06 09:42:30;;;;;;;2.20;1.40;;;;;;;;;;5034343;28;20222;-30
2023/05/06 09:44:58;;;;;;;1.83;1.40;;;;;;;;;;5039291;28;20221;-27
2023/05/06 09:47:26;;;;;;;2.30;1.40;;;;;;;;;;5036287;28;20202;-27
2023/05/06 09:49:57;;;;;;;1.80;1.40;;;;;;;;;;5034720;28;20209;-27
2023/05/06 09:52:24;;;;;;;2.27;1.40;;;;;;;;;;5034762;28;20193;-27
2023/05/06 09:54:51;;;;;;;1.93;1.60;;;;;;;;;;5037750;28;20259;-28
2023/05/06 09:57:19;;;;;;;1.87;1.40;;;;;;;;;;5039714;28;20200;-30
2023/05/06 09:59:47;;;;;;;1.73;1.40;;;;;;;;;;5034192;28;20215;-30
2023/05/06 10:02:15;;;;;;;3.33;1.30;;;;;;;;;;5044842;28;20229;-28
2023/05/06 10:04:44;;;;;;;1.63;1.30;;;;;;;;;;5053361;28;20229;-29
2023/05/06 10:07:12;;;;;;;1.20;1.20;;;;;;;;;;5041583;28;20206;-29
2023/05/06 10:09:40;;;;;;;1.30;1.20;;;;;;;;;;5042730;28;20212;-27
2023/05/06 10:12:08;;;;;;;1.40;1.30;;;;;;;;;;5052380;28;20205;-29
2023/05/06 10:14:35;;;;;;;1.17;1.07;;;;;;;;;;5046225;28;20226;-28
2023/05/06 10:17:05;;;;;;;2.50;1.80;;;;;;;;;;5035001;28;20228;-27
2023/05/06 10:19:33;;;;;;;1.50;1.40;;;;;;;;;;5041736;28;20201;-26
2023/05/06 10:22:02;;;;;;;1.50;1.40;;;;;;;;;;5032831;28;20235;-27
2023/05/06 10:24:33;;;;;;;1.00;1.00;;;;;;;;;;5040251;28;20230;-29
2023/05/06 10:27:03;;;;;;;2.00;1.30;;;;;;;;;;5049447;28;20197;-27
2023/05/06 10:29:31;;;;;;;1.37;1.27;;;;;;;;;;5039268;28;20211;-27
2023/05/06 10:32:00;;;;;;;1.07;1.07;;;;;;;;;;5041587;28;20194;-29
2023/05/06 10:34:33;;;;;;;1.37;1.10;;;;;;;;;;5033752;28;20230;-25
2023/05/06 10:37:00;;;;;;;2.57;1.30;;;;;;;;;;5034692;28;20249;-28
2023/05/06 10:39:28;;;;;;;3.00;1.10;;;;;;;;;;5045184;28;20216;-25
2023/05/06 10:41:55;;;;;;;0.90;0.90;;;;;;;;;;5032869;28;20229;-29
2023/05/06 10:44:37;;;;;;;1.27;1.20;;;;;;;;;;5032485;28;20233;-29
2023/05/06 10:47:04;;;;;;;1.50;1.20;;;;;;;;;;5038967;28;20213;-30
2023/05/06 10:49:33;;;;;;;1.23;1.13;;;;;;;;;;5034107;28;20206;-29
2023/05/06 10:52:13;;;;;;;1.10;1.10;;;;;;;;;;5033813;28;20209;-27
2023/05/06 10:54:50;;;;;;;1.67;1.27;;;;;;;;;;5037192;28;20228;-27
2023/05/06 10:57:17;;;;;;;1.30;1.20;;;;;;;;;;5035316;28;20212;-28
2023/05/06 10:59:47;;;;;;;3.17;1.17;;;;;;;;;;5037014;28;20201;-27
2023/05/06 11:02:14;;;;;;;1.53;1.40;;;;;;;;;;5033469;28;20217;-30
2023/05/06 11:04:43;;;;;;;1.20;1.10;;;;;;;;;;5047243;28;20225;-27
2023/05/06 11:07:11;;;;;;;1.37;1.10;;;;;;;;;;5053034;28;20218;-29
2023/05/06 11:09:57;;;;;;;2.03;1.80;;;;;;;;;;5042337;28;20206;-28
2023/05/06 11:12:44;;;;;;;0.90;0.90;;;;;;;;;;5032984;28;20198;-28
2023/05/06 11:15:27;;;;;;;1.63;1.30;;;;;;;;;;5030871;28;20229;-28
2023/05/06 11:17:55;;;;;;;1.00;1.00;;;;;;;;;;5040773;28;20214;-27
2023/05/06 11:20:24;;;;;;;1.07;1.07;;;;;;;;;;5033324;28;20209;-27
2023/05/06 11:22:51;;;;;;;1.07;1.00;;;;;;;;;;5033719;28;20225;-28
2023/05/06 11:25:37;;;;;;;1.10;1.00;;;;;;;;;;5034349;28;20233;-27
2023/05/06 11:28:07;;;;;;;2.27;1.20;;;;;;;;;;5036818;28;20209;-28
2023/05/06 11:30:34;;;;;;;1.90;0.90;;;;;;;;;;5040255;28;20220;-26
2023/05/06 11:33:04;;;;;;;1.07;1.07;;;;;;;;;;5033481;28;20228;-28
2023/05/06 11:35:36;;;;;;;0.90;0.90;;;;;;;;;;5033139;28;20232;-27
2023/05/06 11:38:03;;;;;;;1.20;1.10;;;;;;;;;;5030742;28;20214;-28
2023/05/06 11:40:30;;;;;;;1.53;1.07;;;;;;;;;;5039382;28;20209;-30
2023/05/06 11:43:09;;;;;;;1.30;1.10;;;;;;;;;;5033938;28;20231;-30
2023/05/06 11:45:43;;;;;;;1.23;1.13;;;;;;;;;;5041064;28;20275;-31
2023/05/06 11:48:12;;;;;;;1.00;1.00;;;;;;;;;;5046958;28;20209;-30
2023/05/06 11:50:44;;;;;;;1.37;1.00;;;;;;;;;;5031326;28;20214;-30
2023/05/06 11:53:12;;;;;;;1.63;1.30;;;;;;;;;;5040512;28;20258;-28
2023/05/06 11:55:39;;;;;;;1.30;1.20;;;;;;;;;;5035343;28;20209;-25
2023/05/06 11:58:06;;;;;;;1.10;0.90;;;;;;;;;;5048609;28;20203;-26
2023/05/06 12:00:33;;;;;;;1.23;1.10;;;;;;;;;;5044804;28;20213;-29
2023/05/06 12:03:02;;;;;;;1.07;1.07;;;;;;;;;;5039682;28;20225;-32
2023/05/06 12:05:29;;;;;;;1.10;1.00;;;;;;;;;;5043027;28;20259;-27
2023/05/06 12:07:58;;;;;;;1.43;1.10;;;;;;;;;;5051414;28;20209;-28
2023/05/06 12:10:25;;;;;;;1.17;1.10;;;;;;;;;;5031289;28;20253;-28
2023/05/06 12:12:53;;;;;;;1.83;1.10;;;;;;;;;;5034103;28;20209;-28
2023/05/06 12:15:20;;;;;;;1.07;1.00;;;;;;;;;;5042842;28;20209;-28
2023/05/06 12:17:47;;;;;;;1.20;1.10;;;;;;;;;;5033365;28;20202;-28
2023/05/06 12:20:15;;;;;;;1.80;1.03;;;;;;;;;;5030511;28;20206;-29
2023/05/06 12:22:42;;;;;;;1.53;1.00;;;;;;;;;;5030600;28;20252;-31
2023/05/06 12:25:17;;;;;;;1.17;1.00;;;;;;;;;;5041651;28;20226;-29
2023/05/06 12:27:44;;;;;;;1.30;1.03;;;;;;;;;;5035461;28;20227;-31
2023/05/06 12:30:12;;;;;;;5.43;1.10;;;;;;;;;;5041409;28;20202;-26
2023/05/06 12:32:54;;;;;;;1.20;1.10;;;;;;;;;;5042017;28;20196;-30
2023/05/06 12:35:38;;;;;;;2.17;1.03;;;;;;;;;;5034162;28;20213;-30
2023/05/06 12:38:09;;;;;;;1.90;1.27;;;;;;;;;;5030863;28;20197;-29
2023/05/06 12:40:38;;;;;;;1.40;1.00;;;;;;;;;;5033209;28;20207;-29
2023/05/06 12:43:05;;;;;;;1.17;1.07;;;;;;;;;;5040644;28;20224;-27
2023/05/06 12:45:32;;;;;;;0.93;0.93;;;;;;;;;;5037113;28;20206;-29
2023/05/06 12:48:00;;;;;;;1.03;1.03;;;;;;;;;;5046714;28;20202;-31
2023/05/06 12:50:31;;;;;;;1.27;0.90;;;;;;;;;;5030587;28;20237;-27
2023/05/06 12:52:58;;;;;;;1.00;1.00;;;;;;;;;;5030436;28;20205;-29
2023/05/06 12:55:26;;;;;;;1.20;1.00;;;;;;;;;;5034062;28;20444;-27
2023/05/06 12:57:54;;;;;;;1.23;1.00;;;;;;;;;;5035894;28;20201;-29
2023/05/06 13:00:22;;;;;;;1.57;1.10;;;;;;;;;;5034598;28;20208;-30
2023/05/06 13:02:49;;;;;;;3.20;0.97;;;;;;;;;;5033581;28;20232;-30
2023/05/06 13:05:16;;;;;;;1.30;1.00;;;;;;;;;;5031664;28;20225;-27
2023/05/06 14:05:45;;;;;;;2.85;1.20;;;;;;;;;;5124526;27;20612;-33
2023/05/06 14:08:12;;;;;;;1.37;1.10;;;;;;;;;;5101159;28;20204;-36
2023/05/06 14:10:39;;;;;;;1.10;1.10;;;;;;;;;;5098067;28;20548;-35
2023/05/06 14:13:06;;;;;;;0.85;0.85;;;;;;;;;;5104497;28;20196;-38
2023/05/06 14:15:33;;;;;;;1.23;1.00;;;;;;;;;;5108296;28;20226;-34
2023/05/06 14:18:00;;;;;;;0.97;0.97;;;;;;;;;;5116789;28;20206;-35
2023/05/06 14:20:27;;;;;;;1.67;1.10;;;;;;;;;;5126942;28;20689;-37
2023/05/06 14:22:56;;;;;;;2.07;1.03;;;;;;;;;;5115874;28;20287;-37
2023/05/06 14:25:26;;;;;;;1.13;0.90;;;;;;;;;;5097054;28;20239;-38
2023/05/06 14:27:53;;;;;;;1.60;0.90;;;;;;;;;;5112988;28;20200;-38
2023/05/06 14:30:20;;;;;;;1.03;0.83;;;;;;;;;;5094910;28;20207;-35
2023/05/06 14:32:48;;;;;;;2.03;1.00;;;;;;;;;;5111382;28;20203;-36
2023/05/06 14:35:15;;;;;;;0.90;0.90;;;;;;;;;;5124791;28;20538;-35
2023/05/06 14:37:42;;;;;;;0.90;0.90;;;;;;;;;;5127027;28;20206;-40
2023/05/06 14:40:11;;;;;;;0.80;0.80;;;;;;;;;;5094366;28;20212;-34
2023/05/06 14:42:39;;;;;;;1.40;1.30;;;;;;;;;;5104150;28;20685;-36
2023/05/06 14:45:07;;;;;;;2.50;1.00;;;;;;;;;;5092185;28;20209;-33
2023/05/06 14:47:34;;;;;;;0.97;0.90;;;;;;;;;;5121580;28;20566;-36
2023/05/06 14:50:01;;;;;;;1.70;1.00;;;;;;;;;;5124717;28;20221;-37
2023/05/06 14:52:28;;;;;;;2.00;0.93;;;;;;;;;;5125938;28;20215;-35
2023/05/06 14:55:01;;;;;;;3.00;1.17;;;;;;;;;;5100915;28;20675;-34
2023/05/06 14:57:30;;;;;;;1.10;1.00;;;;;;;;;;5105074;28;20200;-36
2023/05/06 14:59:57;;;;;;;1.57;1.40;;;;;;;;;;5096714;28;20201;-38
2023/05/06 15:02:24;;;;;;;1.90;1.37;;;;;;;;;;5104061;28;20207;-33
2023/05/06 15:04:51;;;;;;;1.47;1.37;;;;;;;;;;5104383;28;20272;-36
2023/05/06 15:07:18;;;;;;;1.47;1.10;;;;;;;;;;5089468;28;20212;-32
2023/05/06 15:09:45;;;;;;;1.80;0.87;;;;;;;;;;5095240;28;20210;-38
2023/05/06 15:12:13;;;;;;;1.23;1.20;;;;;;;;;;5090547;28;20211;-40
2023/05/06 15:14:41;;;;;;;1.43;1.00;;;;;;;;;;5068592;28;20220;-33
2023/05/06 15:17:08;;;;;;;1.57;1.10;;;;;;;;;;5085241;28;20204;-36
2023/05/06 15:19:35;;;;;;;1.03;1.00;;;;;;;;;;5360352;22;20236;-37
2023/05/06 15:22:03;;;;;;;2.50;1.03;;;;;;;;;;5088002;28;20207;-33
2023/05/06 15:24:30;;;;;;;1.10;1.10;;;;;;;;;;5079553;28;20203;-40
2023/05/06 15:26:57;;;;;;;1.23;0.97;;;;;;;;;;5072204;28;20220;-38
2023/05/06 15:29:24;;;;;;;1.07;0.87;;;;;;;;;;5082284;28;20208;-38
2023/05/06 15:31:53;;;;;;;1.03;1.00;;;;;;;;;;5088541;28;20200;-39
2023/05/06 15:34:20;;;;;;;1.50;1.40;;;;;;;;;;5078391;28;20224;-41
2023/05/06 15:36:50;;;;;;;1.20;1.10;;;;;;;;;;5090311;28;20784;-37
2023/05/06 15:39:17;;;;;;;1.53;1.03;;;;;;;;;;5091585;28;20253;-36
2023/05/06 15:41:45;;;;;;;0.77;0.77;;;;;;;;;;5083496;28;20203;-39
2023/05/06 15:44:12;;;;;;;1.17;1.07;;;;;;;;;;5075154;28;20211;-44
2023/05/06 15:46:39;;;;;;;1.60;1.00;;;;;;;;;;5075420;28;20220;-45